createdAt,value
2019-05-22T00:00:57.235Z,1004.39
2019-05-22T00:01:57.236Z,1004.38
2019-05-22T00:02:57.233Z,1004.36
2019-05-22T00:03:57.231Z,1004.39
2019-05-22T00:04:57.224Z,1004.44
2019-05-22T00:05:57.225Z,1004.41
2019-05-22T00:06:57.224Z,1004.44
2019-05-22T00:07:57.223Z,1004.41
2019-05-22T00:08:57.228Z,1004.45
2019-05-22T00:09:57.222Z,1004.48
2019-05-22T00:10:57.221Z,1004.50
2019-05-22T00:11:57.227Z,1004.54
2019-05-22T00:12:57.217Z,1004.57
2019-05-22T00:13:57.224Z,1004.57
2019-05-22T00:14:57.219Z,1004.60
2019-05-22T00:15:57.212Z,1004.62
2019-05-22T00:16:57.209Z,1004.59
2019-05-22T00:17:57.205Z,1004.57
2019-05-22T00:18:57.204Z,1004.61
2019-05-22T00:19:57.208Z,1004.60
2019-05-22T00:20:57.199Z,1004.63
2019-05-22T00:21:57.197Z,1004.60
2019-05-22T00:22:57.196Z,1004.64
2019-05-22T00:23:57.205Z,1004.56
2019-05-22T00:24:57.183Z,1004.62
2019-05-22T00:25:57.190Z,1004.62
2019-05-22T00:26:57.234Z,1004.63
2019-05-22T00:27:57.185Z,1004.61
2019-05-22T00:28:57.185Z,1004.65
2019-05-22T00:29:57.178Z,1004.62
2019-05-22T00:30:57.179Z,1004.64
2019-05-22T00:31:57.183Z,1004.66
2019-05-22T00:32:57.179Z,1004.64
2019-05-22T00:33:57.175Z,1004.65
2019-05-22T00:34:57.173Z,1004.64
2019-05-22T00:35:57.183Z,1004.67
2019-05-22T00:36:57.169Z,1004.64
2019-05-22T00:37:57.178Z,1004.69
2019-05-22T00:38:57.169Z,1004.71
2019-05-22T00:39:57.161Z,1004.68
2019-05-22T00:40:57.161Z,1004.68
2019-05-22T00:41:57.156Z,1004.71
2019-05-22T00:43:04.150Z,1004.72
2019-05-22T00:43:57.154Z,1004.76
2019-05-22T00:44:57.158Z,1004.76
2019-05-22T00:45:57.167Z,1004.78
2019-05-22T00:46:57.153Z,1004.79
2019-05-22T00:47:57.147Z,1004.76
2019-05-22T00:48:57.145Z,1004.76
2019-05-22T00:49:57.142Z,1004.79
2019-05-22T00:50:57.131Z,1004.80
2019-05-22T00:51:57.135Z,1004.79
2019-05-22T00:52:57.131Z,1004.82
2019-05-22T00:53:57.132Z,1004.82
2019-05-22T00:54:57.128Z,1004.83
2019-05-22T00:55:57.128Z,1004.83
2019-05-22T00:56:57.126Z,1004.86
2019-05-22T00:57:57.127Z,1004.88
2019-05-22T00:58:57.123Z,1004.88
2019-05-22T00:59:57.116Z,1004.94
2019-05-22T01:00:57.125Z,1004.90
2019-05-22T01:01:57.117Z,1004.89
2019-05-22T01:02:57.108Z,1004.90
2019-05-22T01:03:57.107Z,1004.93
2019-05-22T01:04:57.107Z,1004.97
2019-05-22T01:05:57.102Z,1004.98
2019-05-22T01:06:57.100Z,1004.96
2019-05-22T01:07:57.122Z,1004.97
2019-05-22T01:08:57.102Z,1005.02
2019-05-22T01:09:57.095Z,1004.98
2019-05-22T01:10:57.094Z,1005.01
2019-05-22T01:11:57.094Z,1005.05
2019-05-22T01:12:57.092Z,1005.06
2019-05-22T01:13:57.080Z,1005.06
2019-05-22T01:14:57.077Z,1005.06
2019-05-22T01:15:57.083Z,1005.07
2019-05-22T01:16:57.080Z,1005.06
2019-05-22T01:17:57.075Z,1005.07
2019-05-22T01:18:57.072Z,1005.03
2019-05-22T01:19:57.071Z,1005.08
2019-05-22T01:20:57.077Z,1005.06
2019-05-22T01:21:57.059Z,1005.06
2019-05-22T01:22:57.066Z,1005.04
2019-05-22T01:23:57.101Z,1005.05
2019-05-22T01:24:57.059Z,1005.05
2019-05-22T01:25:57.052Z,1005.02
2019-05-22T01:26:57.054Z,1005.01
2019-05-22T01:27:57.079Z,1005.04
2019-05-22T01:28:57.047Z,1005.07
2019-05-22T01:29:57.053Z,1005.07
2019-05-22T01:30:57.044Z,1005.04
2019-05-22T01:31:57.048Z,1005.07
2019-05-22T01:32:57.037Z,1005.07
2019-05-22T01:33:57.038Z,1005.08
2019-05-22T01:34:57.032Z,1005.09
2019-05-22T01:35:57.032Z,1005.08
2019-05-22T01:36:57.026Z,1005.09
2019-05-22T01:37:57.078Z,1005.13
2019-05-22T01:38:57.022Z,1005.11
2019-05-22T01:39:57.019Z,1005.14
2019-05-22T01:40:57.017Z,1005.10
2019-05-22T01:41:57.016Z,1005.13
2019-05-22T01:42:57.013Z,1005.13
2019-05-22T01:43:57.010Z,1005.12
2019-05-22T01:45:04.723Z,1005.12
2019-05-22T01:45:57.003Z,1005.09
2019-05-22T01:46:57.002Z,1005.13
2019-05-22T01:47:57.003Z,1005.14
2019-05-22T01:48:56.998Z,1005.14
2019-05-22T01:49:56.993Z,1005.12
2019-05-22T01:50:56.991Z,1005.15
2019-05-22T01:51:56.989Z,1005.17
2019-05-22T01:52:57.031Z,1005.15
2019-05-22T01:53:56.982Z,1005.14
2019-05-22T01:54:56.990Z,1005.18
2019-05-22T01:55:56.978Z,1005.18
2019-05-22T01:56:56.980Z,1005.21
2019-05-22T01:57:56.971Z,1005.20
2019-05-22T01:58:56.969Z,1005.23
2019-05-22T01:59:57.030Z,1005.21
2019-05-22T02:00:56.965Z,1005.15
2019-05-22T02:01:56.990Z,1005.18
2019-05-22T02:02:56.961Z,1005.15
2019-05-22T02:03:56.974Z,1005.15
2019-05-22T02:04:56.958Z,1005.16
2019-05-22T02:05:56.953Z,1005.16
2019-05-22T02:06:56.951Z,1005.17
2019-05-22T02:07:56.945Z,1005.15
2019-05-22T02:08:56.945Z,1005.17
2019-05-22T02:09:56.941Z,1005.16
2019-05-22T02:10:56.940Z,1005.18
2019-05-22T02:11:56.936Z,1005.16
2019-05-22T02:12:56.934Z,1005.18
2019-05-22T02:13:56.936Z,1005.20
2019-05-22T02:14:56.927Z,1005.20
2019-05-22T02:15:56.928Z,1005.13
2019-05-22T02:16:57.523Z,1005.18
2019-05-22T02:17:56.921Z,1005.19
2019-05-22T02:18:56.916Z,1005.19
2019-05-22T02:19:56.918Z,1005.23
2019-05-22T02:20:56.911Z,1005.19
2019-05-22T02:21:56.926Z,1005.22
2019-05-22T02:22:56.914Z,1005.25
2019-05-22T02:23:56.903Z,1005.24
2019-05-22T02:24:56.906Z,1005.20
2019-05-22T02:25:56.899Z,1005.21
2019-05-22T02:26:56.897Z,1005.25
2019-05-22T02:27:56.893Z,1005.25
2019-05-22T02:28:56.898Z,1005.25
2019-05-22T02:29:56.889Z,1005.24
2019-05-22T02:30:56.884Z,1005.27
2019-05-22T02:31:56.889Z,1005.28
2019-05-22T02:32:56.879Z,1005.32
2019-05-22T02:33:56.883Z,1005.27
2019-05-22T02:34:56.881Z,1005.31
2019-05-22T02:35:56.873Z,1005.32
2019-05-22T02:36:56.869Z,1005.29
2019-05-22T02:37:56.875Z,1005.34
2019-05-22T02:38:56.861Z,1005.32
2019-05-22T02:39:56.861Z,1005.30
2019-05-22T02:40:56.862Z,1005.34
2019-05-22T02:41:56.855Z,1005.31
2019-05-22T02:42:56.939Z,1005.33
2019-05-22T02:43:56.850Z,1005.36
2019-05-22T02:44:56.856Z,1005.36
2019-05-22T02:45:56.845Z,1005.35
2019-05-22T02:47:14.416Z,1005.37
2019-05-22T02:47:56.838Z,1005.37
2019-05-22T02:48:56.837Z,1005.35
2019-05-22T02:49:56.830Z,1005.38
2019-05-22T02:50:56.830Z,1005.39
2019-05-22T02:51:56.872Z,1005.36
2019-05-22T02:52:56.826Z,1005.40
2019-05-22T02:53:56.822Z,1005.38
2019-05-22T02:54:56.819Z,1005.39
2019-05-22T02:55:56.820Z,1005.38
2019-05-22T02:56:56.816Z,1005.38
2019-05-22T02:57:56.817Z,1005.40
2019-05-22T02:58:56.807Z,1005.41
2019-05-22T02:59:56.803Z,1005.42
2019-05-22T03:00:56.803Z,1005.39
2019-05-22T03:01:56.796Z,1005.46
2019-05-22T03:02:56.794Z,1005.47
2019-05-22T03:03:56.798Z,1005.51
2019-05-22T03:04:56.796Z,1005.50
2019-05-22T03:05:56.798Z,1005.50
2019-05-22T03:06:56.784Z,1005.48
2019-05-22T03:07:56.786Z,1005.51
2019-05-22T03:08:56.779Z,1005.58
2019-05-22T03:09:56.793Z,1005.56
2019-05-22T03:10:56.771Z,1005.58
2019-05-22T03:11:56.771Z,1005.58
2019-05-22T03:12:56.765Z,1005.62
2019-05-22T03:13:56.772Z,1005.61
2019-05-22T03:14:56.764Z,1005.62
2019-05-22T03:15:56.759Z,1005.61
2019-05-22T03:16:56.758Z,1005.62
2019-05-22T03:17:56.754Z,1005.62
2019-05-22T03:19:08.502Z,1005.61
2019-05-22T03:19:56.747Z,1005.64
2019-05-22T03:20:56.762Z,1005.59
2019-05-22T03:21:56.744Z,1005.65
2019-05-22T03:22:56.738Z,1005.63
2019-05-22T03:23:56.734Z,1005.63
2019-05-22T03:24:56.730Z,1005.66
2019-05-22T03:25:56.728Z,1005.68
2019-05-22T03:26:56.725Z,1005.68
2019-05-22T03:27:56.725Z,1005.63
2019-05-22T03:28:56.724Z,1005.69
2019-05-22T03:29:56.719Z,1005.72
2019-05-22T03:30:56.715Z,1005.68
2019-05-22T03:31:56.721Z,1005.74
2019-05-22T03:32:56.765Z,1005.67
2019-05-22T03:33:56.706Z,1005.68
2019-05-22T03:34:56.702Z,1005.70
2019-05-22T03:35:56.706Z,1005.71
2019-05-22T03:36:56.700Z,1005.69
2019-05-22T03:37:56.698Z,1005.75
2019-05-22T03:38:56.691Z,1005.76
2019-05-22T03:39:56.682Z,1005.82
2019-05-22T03:40:56.684Z,1005.76
2019-05-22T03:41:56.683Z,1005.76
2019-05-22T03:42:56.766Z,1005.76
2019-05-22T03:43:56.674Z,1005.77
2019-05-22T03:44:56.674Z,1005.77
2019-05-22T03:45:56.691Z,1005.72
2019-05-22T03:46:59.377Z,1005.76
2019-05-22T03:47:56.664Z,1005.75
2019-05-22T03:48:56.669Z,1005.84
2019-05-22T03:49:56.661Z,1005.86
2019-05-22T03:50:56.651Z,1005.86
2019-05-22T03:51:56.650Z,1005.90
2019-05-22T03:52:56.647Z,1005.88
2019-05-22T03:53:56.645Z,1005.88
2019-05-22T03:54:56.636Z,1005.91
2019-05-22T03:55:56.643Z,1005.91
2019-05-22T03:56:56.630Z,1005.85
2019-05-22T03:57:56.631Z,1005.91
2019-05-22T03:58:56.632Z,1005.86
2019-05-22T03:59:56.630Z,1005.89
2019-05-22T04:00:56.657Z,1005.91
2019-05-22T04:01:56.621Z,1005.92
2019-05-22T04:02:56.628Z,1005.92
2019-05-22T04:03:56.615Z,1005.94
2019-05-22T04:04:56.607Z,1005.94
2019-05-22T04:05:56.610Z,1005.91
2019-05-22T04:06:56.600Z,1005.93
2019-05-22T04:07:56.596Z,1006.02
2019-05-22T04:08:56.714Z,1005.96
2019-05-22T04:09:56.595Z,1006.03
2019-05-22T04:10:56.585Z,1006.03
2019-05-22T04:11:56.589Z,1006.02
2019-05-22T04:12:56.592Z,1006.01
2019-05-22T04:13:56.578Z,1006.01
2019-05-22T04:14:56.581Z,1006.01
2019-05-22T04:15:56.571Z,1006.04
2019-05-22T04:16:56.570Z,1006.04
2019-05-22T04:17:56.567Z,1006.08
2019-05-22T04:18:56.568Z,1006.04
2019-05-22T04:19:56.566Z,1006.04
2019-05-22T04:20:56.556Z,1006.05
2019-05-22T04:21:56.550Z,1006.04
2019-05-22T04:22:56.548Z,1006.04
2019-05-22T04:23:56.551Z,1006.07
2019-05-22T04:24:56.539Z,1006.12
2019-05-22T04:25:56.538Z,1006.11
2019-05-22T04:26:56.533Z,1006.18
2019-05-22T04:27:56.542Z,1006.15
2019-05-22T04:28:56.525Z,1006.19
2019-05-22T04:29:56.528Z,1006.17
2019-05-22T04:30:59.821Z,1006.13
2019-05-22T04:31:56.524Z,1006.18
2019-05-22T04:32:56.515Z,1006.19
2019-05-22T04:33:56.508Z,1006.21
2019-05-22T04:34:56.505Z,1006.20
2019-05-22T04:35:56.495Z,1006.17
2019-05-22T04:36:56.501Z,1006.17
2019-05-22T04:37:56.510Z,1006.17
2019-05-22T04:38:56.494Z,1006.15
2019-05-22T04:39:56.495Z,1006.16
2019-05-22T04:40:56.489Z,1006.21
2019-05-22T04:41:56.486Z,1006.20
2019-05-22T04:42:56.490Z,1006.18
2019-05-22T04:43:56.474Z,1006.17
2019-05-22T04:44:56.505Z,1006.18
2019-05-22T04:45:56.473Z,1006.18
2019-05-22T04:46:56.489Z,1006.23
2019-05-22T04:47:56.454Z,1006.20
2019-05-22T04:48:56.454Z,1006.23
2019-05-22T04:50:06.618Z,1006.20
2019-05-22T04:50:56.455Z,1006.19
2019-05-22T04:51:56.450Z,1006.20
2019-05-22T04:52:56.451Z,1006.25
2019-05-22T04:53:56.435Z,1006.23
2019-05-22T04:54:56.434Z,1006.24
2019-05-22T04:55:56.432Z,1006.21
2019-05-22T04:56:56.424Z,1006.27
2019-05-22T04:57:56.422Z,1006.26
2019-05-22T04:58:56.423Z,1006.25
2019-05-22T04:59:56.416Z,1006.24
2019-05-22T05:00:56.412Z,1006.25
2019-05-22T05:01:56.410Z,1006.19
2019-05-22T05:02:56.403Z,1006.21
2019-05-22T05:03:56.398Z,1006.27
2019-05-22T05:04:56.398Z,1006.29
2019-05-22T05:05:56.397Z,1006.28
2019-05-22T05:06:56.392Z,1006.36
2019-05-22T05:07:56.406Z,1006.28
2019-05-22T05:08:56.384Z,1006.34
2019-05-22T05:09:56.378Z,1006.36
2019-05-22T05:10:56.373Z,1006.38
2019-05-22T05:11:56.377Z,1006.45
2019-05-22T05:12:56.365Z,1006.39
2019-05-22T05:13:56.361Z,1006.41
2019-05-22T05:14:56.369Z,1006.42
2019-05-22T05:15:56.369Z,1006.43
2019-05-22T05:16:56.352Z,1006.44
2019-05-22T05:17:56.357Z,1006.47
2019-05-22T05:18:56.350Z,1006.49
2019-05-22T05:19:56.354Z,1006.50
2019-05-22T05:20:56.337Z,1006.46
2019-05-22T05:21:56.341Z,1006.51
2019-05-22T05:22:56.320Z,1006.52
2019-05-22T05:23:56.322Z,1006.56
2019-05-22T05:24:56.320Z,1006.50
2019-05-22T05:25:56.314Z,1006.54
2019-05-22T05:26:56.316Z,1006.54
2019-05-22T05:27:57.179Z,1006.56
2019-05-22T05:28:56.316Z,1006.56
2019-05-22T05:29:57.178Z,1006.50
2019-05-22T05:30:56.313Z,1006.57
2019-05-22T05:31:56.306Z,1006.59
2019-05-22T05:32:56.292Z,1006.56
2019-05-22T05:33:56.287Z,1006.55
2019-05-22T05:34:56.289Z,1006.51
2019-05-22T05:35:56.283Z,1006.60
2019-05-22T05:36:56.284Z,1006.57
2019-05-22T05:37:56.274Z,1006.55
2019-05-22T05:38:56.270Z,1006.57
2019-05-22T05:39:56.265Z,1006.59
2019-05-22T05:40:56.264Z,1006.59
2019-05-22T05:41:56.259Z,1006.57
2019-05-22T05:42:56.252Z,1006.58
2019-05-22T05:43:56.248Z,1006.62
2019-05-22T05:44:56.246Z,1006.51
2019-05-22T05:45:56.257Z,1006.53
2019-05-22T05:46:56.237Z,1006.54
2019-05-22T05:47:56.241Z,1006.55
2019-05-22T05:48:56.239Z,1006.49
2019-05-22T05:49:56.227Z,1006.58
2019-05-22T05:50:56.221Z,1006.52
2019-05-22T05:51:56.215Z,1006.62
2019-05-22T05:52:56.218Z,1006.57
2019-05-22T05:53:56.216Z,1006.63
2019-05-22T05:54:56.206Z,1006.60
2019-05-22T05:55:56.208Z,1006.59
2019-05-22T05:56:56.203Z,1006.59
2019-05-22T05:57:56.199Z,1006.56
2019-05-22T05:58:56.191Z,1006.60
2019-05-22T05:59:56.189Z,1006.62
2019-05-22T06:00:56.188Z,1006.59
2019-05-22T06:01:56.176Z,1006.57
2019-05-22T06:02:56.888Z,1006.60
2019-05-22T06:03:56.170Z,1006.58
2019-05-22T06:04:56.170Z,1006.63
2019-05-22T06:05:56.171Z,1006.63
2019-05-22T06:07:00.314Z,1006.65
2019-05-22T06:07:56.154Z,1006.60
2019-05-22T06:08:56.156Z,1006.67
2019-05-22T06:09:56.149Z,1006.70
2019-05-22T06:10:56.143Z,1006.70
2019-05-22T06:11:56.169Z,1006.70
2019-05-22T06:12:56.171Z,1006.73
2019-05-22T06:13:56.129Z,1006.75
2019-05-22T06:14:56.129Z,1006.73
2019-05-22T06:15:56.124Z,1006.78
2019-05-22T06:16:56.119Z,1006.74
2019-05-22T06:17:56.119Z,1006.77
2019-05-22T06:18:57.151Z,1006.73
2019-05-22T06:19:56.106Z,1006.75
2019-05-22T06:21:03.877Z,1006.75
2019-05-22T06:21:56.098Z,1006.79
2019-05-22T06:22:56.099Z,1006.83
2019-05-22T06:23:56.091Z,1006.80
2019-05-22T06:24:56.086Z,1006.88
2019-05-22T06:25:56.085Z,1006.84
2019-05-22T06:26:56.077Z,1006.93
2019-05-22T06:27:56.083Z,1006.93
2019-05-22T06:28:56.070Z,1006.96
2019-05-22T06:29:56.066Z,1007.00
2019-05-22T06:30:56.061Z,1006.99
2019-05-22T06:31:56.057Z,1007.02
2019-05-22T06:32:56.076Z,1007.03
2019-05-22T06:33:56.049Z,1007.06
2019-05-22T06:34:56.046Z,1007.07
2019-05-22T06:35:56.044Z,1007.04
2019-05-22T06:36:56.037Z,1007.14
2019-05-22T06:37:56.037Z,1007.06
2019-05-22T06:38:56.029Z,1007.10
2019-05-22T06:39:56.028Z,1007.11
2019-05-22T06:40:56.026Z,1007.05
2019-05-22T06:41:56.019Z,1007.06
2019-05-22T06:42:56.013Z,1007.09
2019-05-22T06:43:56.010Z,1007.04
2019-05-22T06:44:56.006Z,1007.02
2019-05-22T06:45:55.999Z,1006.93
2019-05-22T06:46:55.997Z,1007.05
2019-05-22T06:47:55.990Z,1007.03
2019-05-22T06:48:55.994Z,1007.01
2019-05-22T06:49:55.982Z,1007.05
2019-05-22T06:50:55.979Z,1007.07
2019-05-22T06:51:55.977Z,1007.01
2019-05-22T06:53:08.970Z,1007.06
2019-05-22T06:53:55.969Z,1007.08
2019-05-22T06:54:55.964Z,1007.07
2019-05-22T06:55:55.963Z,1007.11
2019-05-22T06:56:55.955Z,1007.10
2019-05-22T06:57:55.951Z,1007.14
2019-05-22T06:58:55.946Z,1007.17
2019-05-22T07:00:12.093Z,1007.18
2019-05-22T07:00:55.938Z,1007.21
2019-05-22T07:02:01.299Z,1007.22
2019-05-22T07:02:55.935Z,1007.28
2019-05-22T07:03:55.928Z,1007.28
2019-05-22T07:04:55.924Z,1007.30
2019-05-22T07:05:55.917Z,1007.31
2019-05-22T07:06:56.038Z,1007.36
2019-05-22T07:07:55.910Z,1007.34
2019-05-22T07:08:55.906Z,1007.33
2019-05-22T07:09:55.903Z,1007.32
2019-05-22T07:10:55.903Z,1007.26
2019-05-22T07:11:55.895Z,1007.29
2019-05-22T07:12:55.898Z,1007.33
2019-05-22T07:13:55.887Z,1007.28
2019-05-22T07:14:55.883Z,1007.30
2019-05-22T07:15:55.879Z,1007.34
2019-05-22T07:16:55.873Z,1007.39
2019-05-22T07:17:55.869Z,1007.42
2019-05-22T07:18:55.865Z,1007.41
2019-05-22T07:19:55.860Z,1007.39
2019-05-22T07:20:55.859Z,1007.40
2019-05-22T07:21:55.852Z,1007.43
2019-05-22T07:22:55.856Z,1007.49
2019-05-22T07:23:55.845Z,1007.40
2019-05-22T07:24:55.841Z,1007.42
2019-05-22T07:25:55.896Z,1007.39
2019-05-22T07:26:55.833Z,1007.40
2019-05-22T07:27:55.831Z,1007.39
2019-05-22T07:28:55.826Z,1007.41
2019-05-22T07:29:55.856Z,1007.33
2019-05-22T07:30:55.815Z,1007.40
2019-05-22T07:31:55.811Z,1007.41
2019-05-22T07:32:55.808Z,1007.35
2019-05-22T07:33:55.803Z,1007.45
2019-05-22T07:34:55.801Z,1007.41
2019-05-22T07:36:09.546Z,1007.39
2019-05-22T07:36:55.790Z,1007.53
2019-05-22T07:37:55.789Z,1007.53
2019-05-22T07:38:55.787Z,1007.49
2019-05-22T07:39:55.779Z,1007.53
2019-05-22T07:40:55.792Z,1007.52
2019-05-22T07:41:55.771Z,1007.51
2019-05-22T07:42:56.065Z,1007.57
2019-05-22T07:43:55.767Z,1007.55
2019-05-22T07:44:55.765Z,1007.46
2019-05-22T07:45:55.963Z,1007.43
2019-05-22T07:46:55.749Z,1007.52
2019-05-22T07:47:55.766Z,1007.53
2019-05-22T07:48:55.743Z,1007.53
2019-05-22T07:49:55.740Z,1007.52
2019-05-22T07:50:55.736Z,1007.55
2019-05-22T07:52:01.147Z,1007.53
2019-05-22T07:52:55.730Z,1007.54
2019-05-22T07:53:55.722Z,1007.43
2019-05-22T07:54:55.719Z,1007.53
2019-05-22T07:55:55.715Z,1007.47
2019-05-22T07:56:55.714Z,1007.63
2019-05-22T07:57:55.714Z,1007.61
2019-05-22T07:58:58.863Z,1007.70
2019-05-22T07:59:55.700Z,1007.74
2019-05-22T08:00:55.712Z,1007.72
2019-05-22T08:01:55.691Z,1007.74
2019-05-22T08:02:55.689Z,1007.77
2019-05-22T08:03:55.684Z,1007.75
2019-05-22T08:04:55.681Z,1007.83
2019-05-22T08:05:55.680Z,1007.75
2019-05-22T08:06:55.670Z,1007.74
2019-05-22T08:07:55.691Z,1007.80
2019-05-22T08:08:55.665Z,1007.81
2019-05-22T08:09:55.686Z,1007.83
2019-05-22T08:10:55.656Z,1007.81
2019-05-22T08:11:55.651Z,1007.85
2019-05-22T08:12:55.643Z,1007.86
2019-05-22T08:13:55.643Z,1007.81
2019-05-22T08:14:55.638Z,1007.79
2019-05-22T08:15:55.634Z,1007.76
2019-05-22T08:16:55.628Z,1007.76
2019-05-22T08:17:55.614Z,1007.73
2019-05-22T08:18:55.619Z,1007.74
2019-05-22T08:19:55.614Z,1007.73
2019-05-22T08:20:55.616Z,1007.77
2019-05-22T08:22:06.706Z,1007.77
2019-05-22T08:22:55.604Z,1007.73
2019-05-22T08:23:55.599Z,1007.76
2019-05-22T08:24:55.596Z,1007.81
2019-05-22T08:25:55.590Z,1007.76
2019-05-22T08:26:55.590Z,1007.79
2019-05-22T08:27:55.597Z,1007.82
2019-05-22T08:28:55.583Z,1007.77
2019-05-22T08:29:56.955Z,1007.83
2019-05-22T08:30:55.576Z,1007.85
2019-05-22T08:31:55.572Z,1007.82
2019-05-22T08:32:55.563Z,1007.85
2019-05-22T08:33:55.558Z,1007.89
2019-05-22T08:34:55.554Z,1007.83
2019-05-22T08:35:55.555Z,1007.84
2019-05-22T08:36:55.549Z,1007.83
2019-05-22T08:37:55.542Z,1007.80
2019-05-22T08:38:55.541Z,1007.71
2019-05-22T08:39:55.541Z,1007.80
2019-05-22T08:40:55.536Z,1007.82
2019-05-22T08:41:55.527Z,1007.76
2019-05-22T08:42:55.522Z,1007.84
2019-05-22T08:44:14.728Z,1007.79
2019-05-22T08:44:55.516Z,1007.83
2019-05-22T08:45:55.520Z,1007.79
2019-05-22T08:46:55.528Z,1007.85
2019-05-22T08:47:55.497Z,1007.82
2019-05-22T08:48:55.498Z,1007.76
2019-05-22T08:49:55.491Z,1007.88
2019-05-22T08:50:55.490Z,1007.93
2019-05-22T08:51:55.485Z,1007.86
2019-05-22T08:52:55.480Z,1007.90
2019-05-22T08:53:55.482Z,1007.87
2019-05-22T08:54:55.476Z,1007.90
2019-05-22T08:55:55.507Z,1007.95
2019-05-22T08:56:55.470Z,1007.90
2019-05-22T08:57:55.457Z,1007.97
2019-05-22T08:58:55.453Z,1007.87
2019-05-22T08:59:55.451Z,1007.92
2019-05-22T09:00:55.456Z,1007.98
2019-05-22T09:01:55.448Z,1007.94
2019-05-22T09:02:55.442Z,1007.93
2019-05-22T09:03:55.443Z,1007.95
2019-05-22T09:04:55.433Z,1008.00
2019-05-22T09:05:55.431Z,1007.98
2019-05-22T09:06:55.446Z,1007.98
2019-05-22T09:07:55.421Z,1007.99
2019-05-22T09:08:55.419Z,1007.99
2019-05-22T09:09:55.412Z,1007.95
2019-05-22T09:10:55.407Z,1008.07
2019-05-22T09:11:55.406Z,1007.99
2019-05-22T09:12:55.401Z,1008.06
2019-05-22T09:13:55.419Z,1008.07
2019-05-22T09:14:55.402Z,1008.11
2019-05-22T09:15:55.397Z,1008.12
2019-05-22T09:16:55.392Z,1008.13
2019-05-22T09:17:55.381Z,1008.15
2019-05-22T09:18:55.383Z,1008.16
2019-05-22T09:19:55.375Z,1008.18
2019-05-22T09:20:55.371Z,1008.14
2019-05-22T09:21:55.367Z,1008.17
2019-05-22T09:22:55.366Z,1008.21
2019-05-22T09:23:55.359Z,1008.20
2019-05-22T09:24:55.373Z,1008.20
2019-05-22T09:25:55.357Z,1008.24
2019-05-22T09:26:55.350Z,1008.26
2019-05-22T09:27:55.344Z,1008.23
2019-05-22T09:28:55.341Z,1008.25
2019-05-22T09:29:55.333Z,1008.26
2019-05-22T09:30:55.330Z,1008.24
2019-05-22T09:31:55.328Z,1008.26
2019-05-22T09:32:55.331Z,1008.30
2019-05-22T09:33:55.328Z,1008.30
2019-05-22T09:34:55.328Z,1008.31
2019-05-22T09:35:55.310Z,1008.32
2019-05-22T09:36:55.306Z,1008.30
2019-05-22T09:37:55.313Z,1008.33
2019-05-22T09:38:55.310Z,1008.33
2019-05-22T09:39:55.301Z,1008.35
2019-05-22T09:40:55.302Z,1008.32
2019-05-22T09:41:55.296Z,1008.33
2019-05-22T09:42:55.290Z,1008.36
2019-05-22T09:43:55.287Z,1008.33
2019-05-22T09:44:55.301Z,1008.37
2019-05-22T09:45:55.285Z,1008.35
2019-05-22T09:46:55.275Z,1008.42
2019-05-22T09:47:55.275Z,1008.37
2019-05-22T09:48:55.270Z,1008.30
2019-05-22T09:49:55.263Z,1008.39
2019-05-22T09:50:55.261Z,1008.42
2019-05-22T09:51:55.262Z,1008.40
2019-05-22T09:52:58.034Z,1008.36
2019-05-22T09:53:55.253Z,1008.35
2019-05-22T09:54:55.251Z,1008.34
2019-05-22T09:55:55.245Z,1008.35
2019-05-22T09:56:55.240Z,1008.40
2019-05-22T09:57:55.249Z,1008.39
2019-05-22T09:58:55.230Z,1008.44
2019-05-22T09:59:55.232Z,1008.43
2019-05-22T10:00:55.225Z,1008.48
2019-05-22T10:01:55.224Z,1008.50
2019-05-22T10:02:55.219Z,1008.54
2019-05-22T10:03:55.221Z,1008.58
2019-05-22T10:04:55.215Z,1008.52
2019-05-22T10:05:55.274Z,1008.53
2019-05-22T10:06:55.203Z,1008.49
2019-05-22T10:08:00.965Z,1008.52
2019-05-22T10:08:55.197Z,1008.50
2019-05-22T10:09:55.192Z,1008.50
2019-05-22T10:10:55.191Z,1008.55
2019-05-22T10:11:55.190Z,1008.58
2019-05-22T10:12:55.184Z,1008.57
2019-05-22T10:13:55.191Z,1008.54
2019-05-22T10:14:55.175Z,1008.60
2019-05-22T10:15:55.171Z,1008.53
2019-05-22T10:16:55.171Z,1008.59
2019-05-22T10:17:55.164Z,1008.55
2019-05-22T10:18:55.171Z,1008.58
2019-05-22T10:19:55.159Z,1008.61
2019-05-22T10:20:55.193Z,1008.61
2019-05-22T10:21:55.150Z,1008.58
2019-05-22T10:22:55.146Z,1008.62
2019-05-22T10:23:55.142Z,1008.57
2019-05-22T10:25:13.896Z,1008.64
2019-05-22T10:25:55.136Z,1008.58
2019-05-22T10:26:55.361Z,1008.59
2019-05-22T10:27:59.013Z,1008.63
2019-05-22T10:28:55.124Z,1008.64
2019-05-22T10:29:55.122Z,1008.57
2019-05-22T10:30:56.314Z,1008.67
2019-05-22T10:31:55.113Z,1008.54
2019-05-22T10:32:55.129Z,1008.62
2019-05-22T10:33:55.108Z,1008.61
2019-05-22T10:34:57.726Z,1008.64
2019-05-22T10:35:55.101Z,1008.63
2019-05-22T10:36:55.096Z,1008.65
2019-05-22T10:37:55.093Z,1008.69
2019-05-22T10:38:55.092Z,1008.64
2019-05-22T10:39:55.084Z,1008.66
2019-05-22T10:40:58.903Z,1008.72
2019-05-22T10:41:55.080Z,1008.70
2019-05-22T10:42:55.082Z,1008.62
2019-05-22T10:43:55.074Z,1008.80
2019-05-22T10:44:55.067Z,1008.65
2019-05-22T10:45:55.063Z,1008.72
2019-05-22T10:46:55.059Z,1008.74
2019-05-22T10:47:55.058Z,1008.73
2019-05-22T10:48:55.055Z,1008.76
2019-05-22T10:49:55.051Z,1008.73
2019-05-22T10:50:55.049Z,1008.76
2019-05-22T10:51:55.041Z,1008.80
2019-05-22T10:52:55.268Z,1008.77
2019-05-22T10:53:55.037Z,1008.70
2019-05-22T10:54:56.077Z,1008.86
2019-05-22T10:55:55.028Z,1008.84
2019-05-22T10:56:55.051Z,1008.92
2019-05-22T10:57:55.036Z,1008.88
2019-05-22T10:58:55.016Z,1008.93
2019-05-22T10:59:55.014Z,1008.89
2019-05-22T11:00:55.016Z,1008.97
2019-05-22T11:01:55.022Z,1008.99
2019-05-22T11:02:55.008Z,1009.05
2019-05-22T11:03:55.010Z,1009.00
2019-05-22T11:04:55.000Z,1009.07
2019-05-22T11:06:06.498Z,1008.99
2019-05-22T11:06:54.990Z,1009.07
2019-05-22T11:07:54.987Z,1009.04
2019-05-22T11:08:54.988Z,1009.02
2019-05-22T11:09:54.980Z,1008.96
2019-05-22T11:10:55.034Z,1008.96
2019-05-22T11:11:54.976Z,1009.06
2019-05-22T11:12:54.993Z,1009.00
2019-05-22T11:14:01.263Z,1009.05
2019-05-22T11:14:54.959Z,1009.04
2019-05-22T11:15:54.969Z,1008.99
2019-05-22T11:16:54.963Z,1008.99
2019-05-22T11:17:54.949Z,1008.97
2019-05-22T11:18:54.945Z,1008.97
2019-05-22T11:19:54.942Z,1008.96
2019-05-22T11:20:54.937Z,1009.04
2019-05-22T11:21:56.983Z,1008.99
2019-05-22T11:22:54.958Z,1008.92
2019-05-22T11:23:54.926Z,1009.00
2019-05-22T11:24:54.923Z,1008.98
2019-05-22T11:25:54.918Z,1009.00
2019-05-22T11:26:54.918Z,1009.03
2019-05-22T11:27:54.917Z,1009.07
2019-05-22T11:28:54.915Z,1009.02
2019-05-22T11:29:54.911Z,1009.12
2019-05-22T11:30:54.901Z,1009.07
2019-05-22T11:31:54.897Z,1009.06
2019-05-22T11:32:54.895Z,1009.14
2019-05-22T11:33:54.888Z,1009.13
2019-05-22T11:34:54.887Z,1009.14
2019-05-22T11:35:54.887Z,1009.09
2019-05-22T11:36:54.881Z,1009.18
2019-05-22T11:37:54.885Z,1009.06
2019-05-22T11:38:54.874Z,1009.15
2019-05-22T11:39:54.880Z,1009.18
2019-05-22T11:40:54.866Z,1009.15
2019-05-22T11:41:54.864Z,1009.21
2019-05-22T11:42:54.858Z,1009.24
2019-05-22T11:43:54.934Z,1009.23
2019-05-22T11:44:54.857Z,1009.24
2019-05-22T11:45:54.849Z,1009.29
2019-05-22T11:46:54.842Z,1009.26
2019-05-22T11:47:54.846Z,1009.22
2019-05-22T11:48:54.837Z,1009.28
2019-05-22T11:49:54.843Z,1009.24
2019-05-22T11:50:54.829Z,1009.28
2019-05-22T11:51:54.827Z,1009.27
2019-05-22T11:52:54.825Z,1009.25
2019-05-22T11:54:08.186Z,1009.25
2019-05-22T11:54:54.813Z,1009.28
2019-05-22T11:55:54.811Z,1009.31
2019-05-22T11:56:54.819Z,1009.24
2019-05-22T11:57:54.802Z,1009.29
2019-05-22T11:58:54.801Z,1009.27
2019-05-22T11:59:54.799Z,1009.25
2019-05-22T12:00:54.791Z,1009.26
2019-05-22T12:01:54.794Z,1009.31
2019-05-22T12:02:54.785Z,1009.32
2019-05-22T12:03:54.791Z,1009.33
2019-05-22T12:04:54.783Z,1009.36
2019-05-22T12:05:54.775Z,1009.31